Time;durP1;ratioP1;P1;durP2;ratioP2;P2;SDS_P1;SDS_P2;PMS_P1;PMS_P2;Temp;Humidity;BMP_temperature;BMP_pressure;BME280_temperature;BME280_humidity;BME280_pressure;Samples;Min_cycle;Max_cycle;Signal;HPM_P1;HPM_P2
2021/11/07 00:05:52;;;;;;;;;;;13.50;99.90;;;;;;4999470;28;853;-56
2021/11/07 00:08:42;;;;;;;;;;;13.50;99.90;;;;;;4994778;28;844;-57
2021/11/07 00:11:20;;;;;;;;;;;13.50;99.90;;;;;;4998469;28;2063;-57
2021/11/07 00:13:47;;;;;;;;;;;13.50;99.90;;;;;;4999177;28;1906;-56
2021/11/07 00:16:20;;;;;;;;;;;13.50;99.90;;;;;;4997335;28;1007;-60
2021/11/07 00:18:57;;;;;;;;;;;13.50;99.90;;;;;;4999014;28;747;-56
2021/11/07 00:21:32;;;;;;;;;;;13.40;99.90;;;;;;4999031;28;967;-56
2021/11/07 00:24:05;;;;;;;;;;;13.40;99.90;;;;;;4998587;28;896;-57
2021/11/07 00:26:46;;;;;;;;;;;13.40;99.90;;;;;;4998951;28;848;-57
2021/11/07 00:29:19;;;;;;;;;;;13.40;99.90;;;;;;4998640;28;881;-57
2021/11/07 00:42:52;;;;;;;;;;;13.30;99.90;;;;;;4998428;28;790;-57
2021/11/07 00:50:30;;;;;;;;;;;13.30;99.90;;;;;;4998367;28;786;-57
2021/11/07 00:53:11;;;;;;;;;;;13.30;99.90;;;;;;4998068;28;881;-57
2021/11/07 00:55:43;;;;;;;;;;;13.30;99.90;;;;;;4997915;28;886;-57
2021/11/07 00:58:16;;;;;;;;;;;13.30;99.90;;;;;;4998176;28;878;-57
2021/11/07 01:03:24;;;;;;;;;;;13.30;99.90;;;;;;4999044;28;755;-57
2021/11/07 01:05:50;;;;;;;;;;;13.30;99.90;;;;;;4998860;28;879;-56
2021/11/07 01:08:17;;;;;;;;;;;13.30;99.90;;;;;;4998694;28;806;-57
2021/11/07 01:10:43;;;;;;;;;;;13.30;99.90;;;;;;4998417;28;1162;-56
2021/11/07 01:13:09;;;;;;;;;;;13.20;99.90;;;;;;4998678;28;1969;-57
2021/11/07 01:15:37;;;;;;;;;;;13.30;99.90;;;;;;4998861;28;777;-57
2021/11/07 01:18:03;;;;;;;;;;;13.30;99.90;;;;;;5000767;28;1056;-56
2021/11/07 01:20:31;;;;;;;;;;;13.20;99.90;;;;;;4998452;28;782;-56
2021/11/07 01:25:36;;;;;;;;;;;13.20;99.90;;;;;;4982364;28;878;-56
2021/11/07 01:28:04;;;;;;;;;;;13.20;99.90;;;;;;4998534;28;828;-56
2021/11/07 01:30:39;;;;;;;;;;;13.20;99.90;;;;;;5007589;28;939;-56
2021/11/07 01:33:09;;;;;;;;;;;13.20;99.90;;;;;;5016211;28;1906;-56
2021/11/07 01:41:22;;;;;;;;;;;13.20;99.90;;;;;;4975538;28;1236;-56
2021/11/07 01:43:48;;;;;;;;;;;13.20;99.90;;;;;;5010145;28;969;-56
2021/11/07 01:49:33;;;;;;;;;;;13.10;99.90;;;;;;5003801;28;967;-56
2021/11/07 01:51:32;;;;;;;;;;;13.20;99.90;;;;;;4999647;28;986;-57
2021/11/07 01:54:36;;;;;;;;;;;13.10;99.90;;;;;;4997922;28;1910;-56
2021/11/07 01:56:51;;;;;;;;;;;13.10;99.90;;;;;;4983406;28;1552;-56
2021/11/07 01:59:17;;;;;;;;;;;13.10;99.90;;;;;;4997751;28;812;-57
2021/11/07 02:01:44;;;;;;;;;;;13.10;99.90;;;;;;4997755;28;1596;-57
2021/11/07 02:04:09;;;;;;;;;;;13.10;99.90;;;;;;4997526;28;865;-57
2021/11/07 02:06:35;;;;;;;;;;;13.10;99.90;;;;;;4997942;28;799;-57
2021/11/07 02:09:02;;;;;;;;;;;13.10;99.90;;;;;;4997721;28;982;-57
2021/11/07 02:11:28;;;;;;;;;;;13.10;99.90;;;;;;4997818;28;922;-57
2021/11/07 02:13:54;;;;;;;;;;;13.10;99.90;;;;;;4997390;28;1910;-57
2021/11/07 02:16:21;;;;;;;;;;;13.10;99.90;;;;;;4997482;28;878;-57
2021/11/07 02:18:48;;;;;;;;;;;13.10;99.90;;;;;;4997618;28;944;-57
2021/11/07 02:21:14;;;;;;;;;;;13.10;99.90;;;;;;4997451;28;1688;-57
2021/11/07 02:23:40;;;;;;;;;;;13.10;99.90;;;;;;4982086;28;1177;-57
2021/11/07 02:26:08;;;;;;;;;;;13.10;99.90;;;;;;5015292;28;782;-57
2021/11/07 02:28:36;;;;;;;;;;;13.10;99.90;;;;;;5015698;28;771;-57
2021/11/07 02:31:03;;;;;;;;;;;13.10;99.90;;;;;;5001122;28;771;-57
2021/11/07 02:33:29;;;;;;;;;;;13.10;99.90;;;;;;4996823;28;1910;-57
2021/11/07 02:35:55;;;;;;;;;;;13.10;99.90;;;;;;4997167;28;1024;-56
2021/11/07 02:38:21;;;;;;;;;;;13.10;99.90;;;;;;4997330;28;818;-57
2021/11/07 02:40:47;;;;;;;;;;;13.10;99.90;;;;;;4997154;28;856;-56
2021/11/07 02:43:13;;;;;;;;;;;13.10;99.90;;;;;;4997535;28;901;-57
2021/11/07 02:45:39;;;;;;;;;;;13.10;99.90;;;;;;4997137;28;1527;-56
2021/11/07 02:48:05;;;;;;;;;;;13.10;99.90;;;;;;4998303;28;976;-57
2021/11/07 02:50:31;;;;;;;;;;;13.10;99.90;;;;;;5015042;28;837;-57
2021/11/07 02:52:57;;;;;;;;;;;13.00;99.90;;;;;;5015002;28;991;-57
2021/11/07 02:55:25;;;;;;;;;;;13.00;99.90;;;;;;5015045;28;1903;-57
2021/11/07 02:57:54;;;;;;;;;;;13.00;99.90;;;;;;5014855;28;892;-56
2021/11/07 03:00:23;;;;;;;;;;;13.00;99.90;;;;;;5005874;28;890;-56
2021/11/07 03:02:49;;;;;;;;;;;13.00;99.90;;;;;;4996801;28;1240;-57
2021/11/07 03:05:15;;;;;;;;;;;13.00;99.90;;;;;;5003363;28;865;-57
2021/11/07 03:07:42;;;;;;;;;;;13.00;99.90;;;;;;4996976;28;1117;-57
2021/11/07 03:10:10;;;;;;;;;;;13.00;99.90;;;;;;4996370;28;758;-57
2021/11/07 03:12:37;;;;;;;;;;;13.00;99.90;;;;;;4996903;28;1025;-57
2021/11/07 03:15:05;;;;;;;;;;;13.00;99.90;;;;;;4996801;28;1907;-56
2021/11/07 03:17:31;;;;;;;;;;;13.00;99.90;;;;;;4997016;28;865;-56
2021/11/07 03:19:57;;;;;;;;;;;13.00;99.90;;;;;;4997045;28;797;-57
2021/11/07 03:22:26;;;;;;;;;;;13.00;99.90;;;;;;4997150;28;816;-57
2021/11/07 03:24:54;;;;;;;;;;;13.00;99.90;;;;;;4997249;28;1053;-56
2021/11/07 03:27:32;;;;;;;;;;;13.00;99.90;;;;;;4996844;28;902;-56
2021/11/07 03:29:59;;;;;;;;;;;13.00;99.90;;;;;;4997005;28;838;-56
2021/11/07 03:32:29;;;;;;;;;;;13.00;99.90;;;;;;4996921;28;974;-57
2021/11/07 03:35:01;;;;;;;;;;;13.00;99.90;;;;;;4996553;28;1902;-57
2021/11/07 03:37:35;;;;;;;;;;;13.00;99.90;;;;;;4996671;28;1101;-57
2021/11/07 03:40:03;;;;;;;;;;;13.00;99.90;;;;;;4996196;28;806;-57
2021/11/07 03:42:30;;;;;;;;;;;13.00;99.90;;;;;;4999922;28;766;-57
2021/11/07 03:44:56;;;;;;;;;;;13.00;99.90;;;;;;5000522;28;896;-56
2021/11/07 03:47:22;;;;;;;;;;;13.00;99.90;;;;;;4998565;28;971;-57
2021/11/07 03:49:48;;;;;;;;;;;12.90;99.90;;;;;;4998781;28;842;-57
2021/11/07 03:52:15;;;;;;;;;;;12.90;99.90;;;;;;5011097;28;1255;-57
2021/11/07 03:54:42;;;;;;;;;;;12.90;99.90;;;;;;5000117;28;1899;-56
2021/11/07 03:57:11;;;;;;;;;;;12.90;99.90;;;;;;4998742;28;1088;-56
2021/11/07 03:59:40;;;;;;;;;;;12.90;99.90;;;;;;4999907;28;845;-56
2021/11/07 04:02:08;;;;;;;;;;;12.90;99.90;;;;;;4999842;28;1182;-56
2021/11/07 04:04:34;;;;;;;;;;;12.90;99.90;;;;;;4999794;28;750;-56
2021/11/07 04:07:00;;;;;;;;;;;12.90;99.90;;;;;;5000011;28;944;-57
2021/11/07 04:09:26;;;;;;;;;;;12.90;99.90;;;;;;5017999;28;835;-56
2021/11/07 04:11:52;;;;;;;;;;;12.90;99.90;;;;;;5018046;28;807;-56
2021/11/07 04:14:18;;;;;;;;;;;12.90;99.90;;;;;;5017709;28;1902;-56
2021/11/07 04:16:44;;;;;;;;;;;12.90;99.90;;;;;;5017872;28;893;-56
2021/11/07 04:19:10;;;;;;;;;;;12.90;99.90;;;;;;5017743;28;846;-56
2021/11/07 04:21:37;;;;;;;;;;;12.90;99.90;;;;;;5017496;28;930;-56
2021/11/07 04:24:03;;;;;;;;;;;12.90;99.90;;;;;;5017320;28;800;-56
2021/11/07 04:26:29;;;;;;;;;;;12.90;99.90;;;;;;5000623;28;925;-56
2021/11/07 04:28:55;;;;;;;;;;;12.90;99.90;;;;;;5017479;28;815;-56
2021/11/07 04:31:21;;;;;;;;;;;12.90;99.90;;;;;;5001610;28;1323;-56
2021/11/07 04:33:47;;;;;;;;;;;12.90;99.90;;;;;;5016023;28;1963;-56
2021/11/07 04:36:13;;;;;;;;;;;12.90;99.90;;;;;;5009010;28;1053;-56
2021/11/07 04:38:39;;;;;;;;;;;12.90;99.90;;;;;;4998144;28;1382;-57
2021/11/07 04:41:06;;;;;;;;;;;12.80;99.90;;;;;;5009317;28;1267;-57
2021/11/07 04:43:32;;;;;;;;;;;12.80;99.90;;;;;;5017270;28;882;-57
2021/11/07 04:45:58;;;;;;;;;;;12.90;99.90;;;;;;5003275;28;1240;-57
2021/11/07 04:48:25;;;;;;;;;;;12.80;99.90;;;;;;4999095;28;1000;-57
2021/11/07 04:50:51;;;;;;;;;;;12.90;99.90;;;;;;4999133;28;924;-57
2021/11/07 04:53:21;;;;;;;;;;;12.80;99.90;;;;;;4998103;28;893;-57
2021/11/07 04:55:48;;;;;;;;;;;12.80;99.90;;;;;;4996529;28;1911;-57
2021/11/07 04:58:15;;;;;;;;;;;12.80;99.90;;;;;;5010136;28;1000;-57
2021/11/07 05:00:41;;;;;;;;;;;12.80;99.90;;;;;;5006230;28;834;-56
2021/11/07 05:03:08;;;;;;;;;;;12.80;99.90;;;;;;4995781;28;787;-57
2021/11/07 05:05:34;;;;;;;;;;;12.80;99.90;;;;;;4997826;28;825;-57
2021/11/07 05:08:00;;;;;;;;;;;12.80;99.90;;;;;;4997976;28;892;-58
2021/11/07 05:10:26;;;;;;;;;;;12.80;99.90;;;;;;4997965;28;1120;-56
2021/11/07 05:12:52;;;;;;;;;;;12.80;99.90;;;;;;4997879;28;860;-56
2021/11/07 05:15:18;;;;;;;;;;;12.80;99.90;;;;;;4998082;28;1985;-57
2021/11/07 05:17:44;;;;;;;;;;;12.80;99.90;;;;;;4996891;28;941;-56
2021/11/07 05:20:12;;;;;;;;;;;12.80;99.90;;;;;;4998002;28;880;-56
2021/11/07 05:22:38;;;;;;;;;;;12.80;99.90;;;;;;4997890;28;1209;-56
2021/11/07 05:25:05;;;;;;;;;;;12.80;99.90;;;;;;4997438;28;1021;-56
2021/11/07 05:27:31;;;;;;;;;;;12.80;99.90;;;;;;4997668;28;849;-56
2021/11/07 05:29:57;;;;;;;;;;;12.80;99.90;;;;;;4997720;28;771;-56
2021/11/07 05:32:23;;;;;;;;;;;12.80;99.90;;;;;;4997749;28;910;-56
2021/11/07 05:34:49;;;;;;;;;;;12.80;99.90;;;;;;4996022;28;1899;-56
2021/11/07 05:37:15;;;;;;;;;;;12.80;99.90;;;;;;4996494;28;1022;-56
2021/11/07 05:39:41;;;;;;;;;;;12.80;99.90;;;;;;4997449;28;932;-57
2021/11/07 05:42:07;;;;;;;;;;;12.80;99.90;;;;;;4996725;28;960;-57
2021/11/07 05:44:33;;;;;;;;;;;12.80;99.90;;;;;;4997786;28;1041;-56
2021/11/07 05:46:59;;;;;;;;;;;12.80;99.90;;;;;;4997122;28;1006;-56
2021/11/07 05:49:25;;;;;;;;;;;12.90;99.90;;;;;;4996035;28;1255;-56
2021/11/07 05:51:52;;;;;;;;;;;12.90;99.90;;;;;;4997262;28;867;-56
2021/11/07 05:54:18;;;;;;;;;;;12.80;99.90;;;;;;4997181;28;1898;-57
2021/11/07 05:56:44;;;;;;;;;;;12.80;99.90;;;;;;4997117;28;932;-57
2021/11/07 05:59:10;;;;;;;;;;;12.80;99.90;;;;;;4997002;28;845;-57
2021/11/07 06:01:36;;;;;;;;;;;12.90;99.90;;;;;;4996747;28;1239;-57
2021/11/07 06:04:04;;;;;;;;;;;12.80;99.90;;;;;;4997089;28;810;-56
2021/11/07 06:06:30;;;;;;;;;;;12.80;99.90;;;;;;4996992;28;1157;-56
2021/11/07 06:08:55;;;;;;;;;;;12.80;99.90;;;;;;4997178;28;938;-57
2021/11/07 06:11:22;;;;;;;;;;;12.80;99.90;;;;;;4990634;28;849;-56
2021/11/07 06:13:48;;;;;;;;;;;12.80;99.90;;;;;;4996703;28;1906;-56
2021/11/07 06:16:14;;;;;;;;;;;12.80;99.90;;;;;;4996843;28;846;-57
2021/11/07 06:18:41;;;;;;;;;;;12.80;99.90;;;;;;4996612;28;865;-56
2021/11/07 06:21:09;;;;;;;;;;;12.80;99.90;;;;;;4996366;28;914;-56
2021/11/07 06:23:35;;;;;;;;;;;12.80;99.90;;;;;;4996967;28;933;-56
2021/11/07 06:26:01;;;;;;;;;;;12.80;99.90;;;;;;4996096;28;891;-56
2021/11/07 06:28:28;;;;;;;;;;;12.80;99.90;;;;;;4996752;28;861;-56
2021/11/07 06:30:54;;;;;;;;;;;12.80;99.90;;;;;;4996549;28;834;-56
2021/11/07 06:33:20;;;;;;;;;;;12.80;99.90;;;;;;4991880;28;994;-56
2021/11/07 06:35:46;;;;;;;;;;;12.80;99.90;;;;;;4995441;28;1910;-56
2021/11/07 06:38:13;;;;;;;;;;;12.80;99.90;;;;;;4996853;28;793;-56
2021/11/07 06:40:40;;;;;;;;;;;12.80;99.90;;;;;;4996354;28;881;-57
2021/11/07 06:43:07;;;;;;;;;;;12.80;99.90;;;;;;5010635;28;857;-58
2021/11/07 06:45:34;;;;;;;;;;;12.80;99.90;;;;;;4996421;28;909;-58
2021/11/07 06:48:00;;;;;;;;;;;12.80;99.90;;;;;;4996553;28;874;-58
2021/11/07 06:50:26;;;;;;;;;;;12.80;99.90;;;;;;4994324;28;1228;-56
2021/11/07 06:52:53;;;;;;;;;;;12.80;99.90;;;;;;4996390;28;1322;-56
2021/11/07 06:55:19;;;;;;;;;;;12.80;99.90;;;;;;4995886;28;1983;-57
2021/11/07 06:57:46;;;;;;;;;;;12.80;99.90;;;;;;4996410;28;805;-57
2021/11/07 07:00:14;;;;;;;;;;;12.80;99.90;;;;;;4996247;28;917;-58
2021/11/07 07:02:41;;;;;;;;;;;12.80;99.90;;;;;;4996397;28;1164;-57
2021/11/07 07:05:08;;;;;;;;;;;12.80;99.90;;;;;;4996387;28;887;-58
2021/11/07 07:07:37;;;;;;;;;;;12.80;99.90;;;;;;4979803;28;970;-56
2021/11/07 07:10:06;;;;;;;;;;;12.80;99.90;;;;;;4996084;28;785;-58
2021/11/07 07:12:44;;;;;;;;;;;12.80;99.90;;;;;;4996430;28;828;-58
2021/11/07 07:15:26;;;;;;;;;;;12.80;99.90;;;;;;4994230;28;1910;-56
2021/11/07 07:21:07;;;;;;;;;;;12.80;99.90;;;;;;4999922;28;819;-57
2021/11/07 07:24:06;;;;;;;;;;;12.80;99.90;;;;;;5000238;28;774;-57
2021/11/07 07:34:11;;;;;;;;;;;12.90;99.90;;;;;;4996275;28;1967;-56
2021/11/07 07:36:40;;;;;;;;;;;12.90;99.90;;;;;;4999480;28;1035;-57
2021/11/07 07:39:08;;;;;;;;;;;12.90;99.90;;;;;;4999533;28;977;-56
2021/11/07 07:41:34;;;;;;;;;;;13.00;99.90;;;;;;4999241;28;838;-56
2021/11/07 07:44:03;;;;;;;;;;;13.10;99.90;;;;;;4999552;28;749;-57
2021/11/07 07:46:29;;;;;;;;;;;13.10;99.90;;;;;;4999508;28;760;-56
2021/11/07 07:48:57;;;;;;;;;;;13.30;99.90;;;;;;4999375;28;1235;-56
2021/11/07 07:51:25;;;;;;;;;;;13.40;99.90;;;;;;4999177;28;857;-56
2021/11/07 07:53:51;;;;;;;;;;;13.60;99.90;;;;;;4999541;28;889;-56
2021/11/07 07:56:17;;;;;;;;;;;13.80;99.90;;;;;;4999318;28;1977;-56
2021/11/07 07:58:44;;;;;;;;;;;13.90;99.90;;;;;;4998420;28;1334;-56
2021/11/07 08:01:10;;;;;;;;;;;14.10;99.90;;;;;;4998876;28;1455;-56
2021/11/07 08:03:36;;;;;;;;;;;14.20;99.90;;;;;;4999667;28;857;-56
2021/11/07 08:06:02;;;;;;;;;;;14.40;99.90;;;;;;4999290;28;834;-56
2021/11/07 08:08:30;;;;;;;;;;;14.50;99.90;;;;;;4999294;28;790;-56
2021/11/07 08:10:56;;;;;;;;;;;14.60;99.90;;;;;;4998929;28;784;-56
2021/11/07 08:13:22;;;;;;;;;;;14.70;99.90;;;;;;4999135;28;949;-56
2021/11/07 08:15:48;;;;;;;;;;;14.80;99.90;;;;;;4998880;28;1915;-56
2021/11/07 08:18:14;;;;;;;;;;;14.90;99.90;;;;;;4998987;28;771;-56
2021/11/07 08:20:43;;;;;;;;;;;15.00;99.90;;;;;;4998994;28;918;-56
2021/11/07 08:23:09;;;;;;;;;;;15.10;99.90;;;;;;4998355;28;864;-56
2021/11/07 08:25:36;;;;;;;;;;;15.20;99.90;;;;;;4998796;28;937;-56
2021/11/07 08:28:05;;;;;;;;;;;15.30;99.90;;;;;;4997762;28;823;-56
2021/11/07 08:30:36;;;;;;;;;;;15.30;99.90;;;;;;4998820;28;894;-56
2021/11/07 08:33:02;;;;;;;;;;;15.40;99.90;;;;;;4997670;28;959;-57
2021/11/07 08:35:28;;;;;;;;;;;15.40;99.90;;;;;;4998366;28;1910;-57
2021/11/07 08:40:29;;;;;;;;;;;15.30;99.90;;;;;;4998340;28;802;-57
2021/11/07 08:43:04;;;;;;;;;;;15.30;99.90;;;;;;4998699;28;862;-57
2021/11/07 09:02:15;;;;;;;;;;;15.00;99.90;;;;;;4998047;28;1294;-57
2021/11/07 09:07:38;;;;;;;;;;;14.90;99.90;;;;;;4997905;28;858;-57
2021/11/07 09:09:59;;;;;;;;;;;14.80;99.90;;;;;;4996404;28;1056;-57
2021/11/07 09:12:26;;;;;;;;;;;14.80;99.90;;;;;;4998196;28;751;-57
2021/11/07 09:14:53;;;;;;;;;;;14.80;99.90;;;;;;4997738;28;1963;-57
2021/11/07 09:17:20;;;;;;;;;;;14.80;99.90;;;;;;4997831;28;901;-57
2021/11/07 09:19:49;;;;;;;;;;;14.70;99.90;;;;;;4998066;28;913;-57
2021/11/07 09:25:00;;;;;;;;;;;14.70;99.90;;;;;;4997774;28;751;-57
2021/11/07 09:34:59;;;;;;;;;;;14.50;99.90;;;;;;4991684;28;1960;-57
2021/11/07 09:37:38;;;;;;;;;;;14.50;99.90;;;;;;4996984;28;869;-57
2021/11/07 09:40:14;;;;;;;;;;;14.50;99.90;;;;;;4996512;28;869;-59
2021/11/07 09:47:58;;;;;;;;;;;14.40;99.90;;;;;;4995960;28;1032;-56
2021/11/07 09:50:24;;;;;;;;;;;14.40;99.90;;;;;;4996891;28;854;-57
2021/11/07 09:52:53;;;;;;;;;;;14.40;99.90;;;;;;4996746;28;971;-57
2021/11/07 09:55:21;;;;;;;;;;;14.30;99.90;;;;;;4995008;28;1894;-57
2021/11/07 09:57:50;;;;;;;;;;;14.30;99.90;;;;;;4996330;28;1211;-56
2021/11/07 10:00:18;;;;;;;;;;;14.30;99.90;;;;;;4996536;28;1072;-56
2021/11/07 10:02:44;;;;;;;;;;;14.30;99.90;;;;;;4980726;28;1364;-56
2021/11/07 10:05:12;;;;;;;;;;;14.40;99.90;;;;;;4996591;28;1288;-56
2021/11/07 10:07:40;;;;;;;;;;;14.40;99.90;;;;;;4995182;28;1163;-56
2021/11/07 10:10:24;;;;;;;;;;;14.40;99.90;;;;;;4996311;28;986;-56
2021/11/07 10:12:53;;;;;;;;;;;14.40;99.90;;;;;;4996418;28;889;-56
2021/11/07 10:18:30;;;;;;;;;;;14.50;99.90;;;;;;4992408;28;958;-57
2021/11/07 10:21:01;;;;;;;;;;;14.50;99.90;;;;;;4996303;28;971;-57
2021/11/07 10:23:38;;;;;;;;;;;14.50;99.90;;;;;;4995643;28;1127;-57
2021/11/07 10:26:22;;;;;;;;;;;14.60;99.90;;;;;;4993240;28;1124;-57
2021/11/07 10:28:53;;;;;;;;;;;14.70;99.90;;;;;;4996683;28;866;-57
2021/11/07 10:31:44;;;;;;;;;;;14.70;99.90;;;;;;4994513;28;990;-57
2021/11/07 10:43:17;;;;;;;;;;;14.70;99.90;;;;;;4996486;28;1053;-57
2021/11/07 10:45:29;;;;;;;;;;;14.70;99.90;;;;;;4996129;28;1056;-57
2021/11/07 10:53:27;;;;;;;;;;;14.80;99.90;;;;;;5000540;28;807;-57
2021/11/07 10:55:55;;;;;;;;;;;14.80;99.90;;;;;;5000316;28;1906;-57
2021/11/07 10:58:26;;;;;;;;;;;14.80;99.90;;;;;;5000638;28;863;-57
2021/11/07 11:00:52;;;;;;;;;;;14.80;99.90;;;;;;4984378;28;1100;-57
2021/11/07 11:03:21;;;;;;;;;;;14.80;99.90;;;;;;5000477;28;890;-57
2021/11/07 11:06:08;;;;;;;;;;;14.80;99.90;;;;;;5000339;28;715;-57
2021/11/07 11:08:40;;;;;;;;;;;14.90;99.90;;;;;;4998529;28;935;-57
2021/11/07 11:13:49;;;;;;;;;;;15.00;99.90;;;;;;5000183;28;874;-57
2021/11/07 11:26:54;;;;;;;;;;;15.10;99.90;;;;;;4999839;28;851;-57
2021/11/07 11:30:06;;;;;;;;;;;15.10;99.90;;;;;;4999832;28;1072;-57
2021/11/07 11:34:43;;;;;;;;;;;15.10;99.90;;;;;;4999705;28;1964;-57
2021/11/07 11:37:16;;;;;;;;;;;15.00;99.90;;;;;;4999882;28;854;-57
2021/11/07 11:39:53;;;;;;;;;;;15.10;99.90;;;;;;4999931;28;797;-57
2021/11/07 11:42:41;;;;;;;;;;;15.00;99.90;;;;;;4999622;28;857;-57
2021/11/07 11:45:09;;;;;;;;;;;15.00;99.90;;;;;;4999812;28;906;-57
2021/11/07 11:48:02;;;;;;;;;;;15.00;99.90;;;;;;4999088;28;907;-57
2021/11/07 11:50:37;;;;;;;;;;;14.90;99.90;;;;;;4997083;28;1283;-57
2021/11/07 11:58:11;;;;;;;;;;;14.80;99.90;;;;;;4999288;28;843;-57
2021/11/07 12:00:49;;;;;;;;;;;14.80;99.90;;;;;;4999233;28;849;-57
2021/11/07 12:06:32;;;;;;;;;;;14.80;99.90;;;;;;4979609;28;843;-57
2021/11/07 12:09:23;;;;;;;;;;;14.80;99.90;;;;;;4979641;28;890;-57
2021/11/07 12:12:02;;;;;;;;;;;14.80;99.90;;;;;;4979637;28;1098;-57
2021/11/07 12:14:41;;;;;;;;;;;14.70;99.90;;;;;;4979545;28;857;-57
2021/11/07 12:17:08;;;;;;;;;;;14.80;99.90;;;;;;4979542;28;1067;-57
2021/11/07 12:19:39;;;;;;;;;;;14.70;99.90;;;;;;4970676;28;1061;-57
2021/11/07 12:22:06;;;;;;;;;;;14.70;99.90;;;;;;4973781;28;795;-57
2021/11/07 12:24:38;;;;;;;;;;;14.80;99.90;;;;;;4979595;28;827;-57
2021/11/07 12:27:25;;;;;;;;;;;14.80;99.90;;;;;;4979706;28;1192;-57
2021/11/07 12:29:56;;;;;;;;;;;14.80;99.90;;;;;;4978850;28;969;-57
2021/11/07 12:32:24;;;;;;;;;;;14.80;99.90;;;;;;4979516;28;784;-57
2021/11/07 12:34:56;;;;;;;;;;;14.80;99.90;;;;;;4979204;28;1906;-57
2021/11/07 12:40:37;;;;;;;;;;;14.80;99.90;;;;;;4965083;28;772;-57
2021/11/07 12:43:26;;;;;;;;;;;14.80;99.90;;;;;;4979244;28;846;-57
2021/11/07 12:45:57;;;;;;;;;;;14.80;99.90;;;;;;4973433;28;1189;-57
2021/11/07 12:48:35;;;;;;;;;;;14.80;99.90;;;;;;4978888;28;739;-57
2021/11/07 12:51:04;;;;;;;;;;;14.80;99.90;;;;;;4979238;28;880;-56
2021/11/07 12:53:50;;;;;;;;;;;14.80;99.90;;;;;;4978918;28;1061;-56
2021/11/07 12:56:26;;;;;;;;;;;14.80;99.90;;;;;;4978420;28;1915;-56
2021/11/07 12:58:52;;;;;;;;;;;14.80;99.90;;;;;;4963663;28;768;-56
2021/11/07 13:01:18;;;;;;;;;;;14.80;99.90;;;;;;4983400;28;1095;-56
2021/11/07 13:03:47;;;;;;;;;;;14.80;99.90;;;;;;4998009;28;874;-56
2021/11/07 13:06:13;;;;;;;;;;;14.80;99.90;;;;;;4998035;28;873;-56
2021/11/07 13:08:43;;;;;;;;;;;14.80;99.90;;;;;;4996691;28;846;-56
2021/11/07 13:11:20;;;;;;;;;;;14.80;99.90;;;;;;4998097;28;796;-56
2021/11/07 13:14:01;;;;;;;;;;;14.80;99.90;;;;;;4992627;28;901;-57
2021/11/07 13:22:24;;;;;;;;;;;14.60;99.90;;;;;;4997545;28;897;-57
2021/11/07 13:25:07;;;;;;;;;;;14.60;99.90;;;;;;4997634;28;1167;-57
2021/11/07 13:27:41;;;;;;;;;;;14.60;99.90;;;;;;4997557;28;1633;-57
2021/11/07 13:30:15;;;;;;;;;;;14.60;99.90;;;;;;4997470;28;827;-56
2021/11/07 13:32:41;;;;;;;;;;;14.60;99.90;;;;;;4993865;28;830;-56
2021/11/07 13:35:12;;;;;;;;;;;14.50;99.90;;;;;;4997666;28;1902;-56
2021/11/07 13:37:42;;;;;;;;;;;14.50;99.90;;;;;;4997326;28;947;-56
2021/11/07 13:40:11;;;;;;;;;;;14.50;99.90;;;;;;4997411;28;989;-56
2021/11/07 13:42:38;;;;;;;;;;;14.50;99.90;;;;;;4996966;28;944;-57
2021/11/07 13:45:05;;;;;;;;;;;14.40;99.90;;;;;;4997455;28;873;-57
2021/11/07 13:47:36;;;;;;;;;;;14.40;99.90;;;;;;4997214;28;819;-58
2021/11/07 13:50:05;;;;;;;;;;;14.40;99.90;;;;;;4980586;28;1020;-57
2021/11/07 13:52:31;;;;;;;;;;;14.40;99.90;;;;;;4997020;28;784;-57
2021/11/07 13:54:58;;;;;;;;;;;14.40;99.90;;;;;;4996905;28;1960;-57
2021/11/07 13:57:31;;;;;;;;;;;14.30;99.90;;;;;;4996188;28;1175;-57
2021/11/07 13:59:58;;;;;;;;;;;14.30;99.90;;;;;;4996906;28;862;-57
2021/11/07 14:02:25;;;;;;;;;;;14.30;99.90;;;;;;4996842;28;1189;-57
2021/11/07 14:04:52;;;;;;;;;;;14.30;99.90;;;;;;4997022;28;996;-57
2021/11/07 14:07:21;;;;;;;;;;;14.30;99.90;;;;;;4996887;28;887;-57
2021/11/07 14:09:57;;;;;;;;;;;14.30;99.90;;;;;;4996864;28;765;-57
2021/11/07 14:12:30;;;;;;;;;;;14.30;99.90;;;;;;4996614;28;778;-57
2021/11/07 14:15:03;;;;;;;;;;;14.30;99.90;;;;;;4992938;28;1958;-57
2021/11/07 14:17:29;;;;;;;;;;;14.30;99.90;;;;;;4996948;28;893;-57
2021/11/07 14:19:55;;;;;;;;;;;14.30;99.90;;;;;;4993759;28;1034;-57
2021/11/07 14:22:21;;;;;;;;;;;14.30;99.90;;;;;;4996801;28;874;-57
2021/11/07 14:24:47;;;;;;;;;;;14.30;99.90;;;;;;4996623;28;973;-57
2021/11/07 14:27:20;;;;;;;;;;;14.30;99.90;;;;;;4992257;28;914;-57
2021/11/07 14:29:57;;;;;;;;;;;14.30;99.90;;;;;;4993226;28;794;-57
2021/11/07 14:32:31;;;;;;;;;;;14.30;99.90;;;;;;4996448;28;871;-57
2021/11/07 14:40:08;;;;;;;;;;;14.30;99.90;;;;;;4996461;28;842;-57
2021/11/07 14:42:52;;;;;;;;;;;14.30;99.90;;;;;;4980074;28;897;-57
2021/11/07 14:53:36;;;;;;;;;;;14.20;99.90;;;;;;4996284;28;818;-57
2021/11/07 14:58:46;;;;;;;;;;;14.20;99.90;;;;;;4996577;28;810;-57
2021/11/07 15:03:54;;;;;;;;;;;14.20;99.90;;;;;;4996213;28;877;-57
2021/11/07 15:08:56;;;;;;;;;;;14.10;99.90;;;;;;4996165;28;885;-57
2021/11/07 15:14:03;;;;;;;;;;;14.10;99.90;;;;;;4996225;28;886;-57
2021/11/07 15:17:07;;;;;;;;;;;14.10;99.90;;;;;;4996237;28;1910;-57
2021/11/07 15:19:31;;;;;;;;;;;14.10;99.90;;;;;;4991205;28;1424;-57
2021/11/07 15:24:28;;;;;;;;;;;14.10;99.90;;;;;;4996082;28;862;-57
2021/11/07 15:26:57;;;;;;;;;;;14.10;99.90;;;;;;4996128;28;917;-57
2021/11/07 15:29:24;;;;;;;;;;;14.00;99.90;;;;;;4996274;28;1052;-57
2021/11/07 15:32:00;;;;;;;;;;;14.00;99.90;;;;;;4996260;28;955;-57
2021/11/07 15:34:30;;;;;;;;;;;14.00;99.90;;;;;;4996077;28;796;-57
2021/11/07 15:36:57;;;;;;;;;;;14.00;99.90;;;;;;4996623;28;1882;-57
2021/11/07 15:39:24;;;;;;;;;;;14.00;99.90;;;;;;4999833;28;862;-57
2021/11/07 15:42:09;;;;;;;;;;;14.00;99.90;;;;;;4999682;28;886;-57
2021/11/07 15:44:39;;;;;;;;;;;14.00;99.90;;;;;;4998174;28;1301;-57
2021/11/07 15:47:05;;;;;;;;;;;13.90;99.90;;;;;;4997208;28;1146;-57
2021/11/07 15:49:38;;;;;;;;;;;13.90;99.90;;;;;;4999353;28;898;-57
2021/11/07 15:52:15;;;;;;;;;;;13.90;99.90;;;;;;4998589;28;1324;-57
2021/11/07 15:54:51;;;;;;;;;;;13.90;99.90;;;;;;4999275;28;1039;-57
2021/11/07 15:57:37;;;;;;;;;;;13.90;99.90;;;;;;4999151;28;1902;-57
2021/11/07 16:03:11;;;;;;;;;;;13.80;99.90;;;;;;4997532;28;1059;-57
2021/11/07 16:18:34;;;;;;;;;;;13.80;99.90;;;;;;4999006;28;780;-57
2021/11/07 16:21:00;;;;;;;;;;;13.80;99.90;;;;;;4998858;28;768;-57
2021/11/07 16:23:26;;;;;;;;;;;13.80;99.90;;;;;;4982679;28;1111;-57
2021/11/07 16:25:52;;;;;;;;;;;13.80;99.90;;;;;;4998871;28;804;-57
2021/11/07 16:28:19;;;;;;;;;;;13.80;99.90;;;;;;4996454;28;1133;-57
2021/11/07 16:30:45;;;;;;;;;;;13.80;99.90;;;;;;4996555;28;851;-58
2021/11/07 16:33:23;;;;;;;;;;;13.80;99.90;;;;;;4998653;28;862;-57
2021/11/07 16:36:13;;;;;;;;;;;13.80;99.90;;;;;;4998618;28;1906;-57
2021/11/07 16:38:46;;;;;;;;;;;13.80;99.90;;;;;;4998250;28;1569;-57
2021/11/07 16:41:25;;;;;;;;;;;13.80;99.90;;;;;;4998597;28;882;-57
2021/11/07 16:43:53;;;;;;;;;;;13.80;99.90;;;;;;4998579;28;865;-57
2021/11/07 16:46:22;;;;;;;;;;;13.80;99.90;;;;;;4998712;28;817;-57
2021/11/07 16:48:49;;;;;;;;;;;13.80;99.90;;;;;;4980821;28;1000;-57
2021/11/07 16:53:54;;;;;;;;;;;13.80;99.90;;;;;;4998459;28;784;-57
2021/11/07 16:56:20;;;;;;;;;;;13.80;99.90;;;;;;4998229;28;1977;-57
2021/11/07 16:59:12;;;;;;;;;;;13.80;99.90;;;;;;4998182;28;839;-57
2021/11/07 17:01:46;;;;;;;;;;;13.80;99.90;;;;;;4996364;28;1249;-57
2021/11/07 17:04:38;;;;;;;;;;;13.80;99.90;;;;;;4996392;28;1022;-57
2021/11/07 17:12:08;;;;;;;;;;;13.70;99.90;;;;;;4998149;28;1105;-57
2021/11/07 17:14:34;;;;;;;;;;;13.70;99.90;;;;;;4996193;28;1147;-57
2021/11/07 17:17:05;;;;;;;;;;;13.70;99.90;;;;;;4998040;28;1906;-57
2021/11/07 17:20:16;;;;;;;;;;;13.70;99.90;;;;;;4995304;28;911;-57
2021/11/07 17:27:28;;;;;;;;;;;13.70;99.90;;;;;;4997366;28;804;-56
2021/11/07 17:30:02;;;;;;;;;;;13.70;99.90;;;;;;4997810;28;928;-56
2021/11/07 17:32:34;;;;;;;;;;;13.70;99.90;;;;;;4997680;28;889;-56
2021/11/07 17:35:14;;;;;;;;;;;13.70;99.90;;;;;;4997842;28;800;-56
2021/11/07 17:37:46;;;;;;;;;;;13.70;99.90;;;;;;4997795;28;1910;-57
2021/11/07 17:40:40;;;;;;;;;;;13.70;99.90;;;;;;4981887;28;893;-57
2021/11/07 17:56:38;;;;;;;;;;;13.70;99.90;;;;;;4993919;28;1977;-57
2021/11/07 17:59:04;;;;;;;;;;;13.60;99.90;;;;;;4997245;28;790;-57
2021/11/07 18:01:30;;;;;;;;;;;13.70;99.90;;;;;;4996807;28;1245;-57
2021/11/07 18:03:58;;;;;;;;;;;13.70;99.90;;;;;;4997332;28;790;-57
2021/11/07 18:06:27;;;;;;;;;;;13.60;99.90;;;;;;4997348;28;1631;-56
2021/11/07 18:09:01;;;;;;;;;;;13.60;99.90;;;;;;4997007;28;925;-56
2021/11/07 18:11:29;;;;;;;;;;;13.70;99.90;;;;;;4997024;28;1260;-56
2021/11/07 18:13:57;;;;;;;;;;;13.70;99.90;;;;;;4997294;28;936;-57
2021/11/07 18:16:26;;;;;;;;;;;13.60;99.90;;;;;;4997051;28;1924;-57